Time;durP1;ratioP1;P1;durP2;ratioP2;P2;SDS_P1;SDS_P2;PMS_P1;PMS_P2;Temp;Humidity;BMP_temperature;BMP_pressure;BME280_temperature;BME280_humidity;BME280_pressure;Samples;Min_cycle;Max_cycle;Signal;HPM_P1;HPM_P2
2022/01/10 00:01:01;;;;;;;22.75;4.88;;;;;;;;;;5032803;28;20505;-67
2022/01/10 00:03:28;;;;;;;17.87;4.00;;;;;;;;;;5034559;28;20060;-68
2022/01/10 00:05:54;;;;;;;18.80;3.38;;;;;;;;;;5034404;28;20069;-67
2022/01/10 00:08:20;;;;;;;15.10;4.00;;;;;;;;;;5032809;28;20410;-69
2022/01/10 00:10:47;;;;;;;15.75;3.83;;;;;;;;;;5034227;28;20551;-67
2022/01/10 00:13:13;;;;;;;15.85;4.18;;;;;;;;;;5034242;28;20085;-67
2022/01/10 00:15:40;;;;;;;14.73;4.18;;;;;;;;;;5034621;28;20045;-69
2022/01/10 00:18:06;;;;;;;14.63;3.45;;;;;;;;;;5034406;28;20111;-67
2022/01/10 00:20:33;;;;;;;18.85;3.90;;;;;;;;;;5034451;28;20107;-68
2022/01/10 00:23:00;;;;;;;16.33;3.45;;;;;;;;;;5028469;28;20057;-68
2022/01/10 00:25:26;;;;;;;23.52;4.38;;;;;;;;;;5031450;28;20091;-68
2022/01/10 00:27:54;;;;;;;14.02;4.57;;;;;;;;;;5033745;28;20053;-68
2022/01/10 00:30:22;;;;;;;15.90;4.10;;;;;;;;;;5034359;28;20050;-68
2022/01/10 00:32:48;;;;;;;17.47;4.30;;;;;;;;;;5032143;28;20045;-68
2022/01/10 00:35:15;;;;;;;20.88;4.35;;;;;;;;;;5032842;28;20746;-68
2022/01/10 00:37:43;;;;;;;13.50;4.60;;;;;;;;;;5033065;28;20099;-68
2022/01/10 00:40:11;;;;;;;20.83;4.93;;;;;;;;;;5034744;28;20049;-67
2022/01/10 00:42:38;;;;;;;12.43;3.20;;;;;;;;;;5033270;28;20045;-67
2022/01/10 00:45:13;;;;;;;15.98;4.05;;;;;;;;;;5032897;28;20049;-67
2022/01/10 00:47:40;;;;;;;15.65;3.10;;;;;;;;;;5033665;28;20123;-67
2022/01/10 00:50:06;;;;;;;16.92;4.15;;;;;;;;;;5033188;28;20100;-67
2022/01/10 00:52:33;;;;;;;11.88;2.97;;;;;;;;;;5033441;28;20053;-67
2022/01/10 00:54:59;;;;;;;16.27;3.63;;;;;;;;;;5033730;28;20049;-67
2022/01/10 00:57:26;;;;;;;14.32;3.20;;;;;;;;;;5033503;28;20123;-67
2022/01/10 00:59:52;;;;;;;15.50;3.42;;;;;;;;;;5033895;28;20107;-67
2022/01/10 01:02:21;;;;;;;8.75;2.60;;;;;;;;;;5033604;28;20053;-67
2022/01/10 01:04:51;;;;;;;13.35;3.22;;;;;;;;;;5033306;28;20076;-67
2022/01/10 01:07:17;;;;;;;10.50;2.75;;;;;;;;;;5033202;28;20076;-67
2022/01/10 01:09:51;;;;;;;17.75;3.00;;;;;;;;;;5033177;28;20099;-67
2022/01/10 01:12:35;;;;;;;13.98;4.65;;;;;;;;;;5032195;28;20493;-67
2022/01/10 01:15:17;;;;;;;11.93;4.00;;;;;;;;;;5034087;28;20132;-67
2022/01/10 01:25:40;;;;;;;12.98;4.30;;;;;;;;;;5033825;28;20045;-67
2022/01/10 01:28:07;;;;;;;16.33;3.92;;;;;;;;;;5032864;28;20050;-67
2022/01/10 01:30:33;;;;;;;9.27;2.55;;;;;;;;;;5033414;28;20049;-67
2022/01/10 01:33:00;;;;;;;13.52;2.97;;;;;;;;;;5032889;28;20057;-67
2022/01/10 01:35:27;;;;;;;11.75;2.67;;;;;;;;;;5032836;28;20045;-68
2022/01/10 01:37:55;;;;;;;9.07;2.58;;;;;;;;;;5032872;28;20045;-67
2022/01/10 01:40:23;;;;;;;11.07;2.60;;;;;;;;;;5033623;28;20049;-67
2022/01/10 01:42:49;;;;;;;11.18;3.00;;;;;;;;;;5031524;28;20046;-67
2022/01/10 01:45:16;;;;;;;10.68;2.78;;;;;;;;;;5032949;28;20054;-67
2022/01/10 01:47:43;;;;;;;9.27;2.10;;;;;;;;;;5032249;28;20100;-68
2022/01/10 01:50:10;;;;;;;10.18;2.72;;;;;;;;;;5033437;28;20095;-68
2022/01/10 01:52:36;;;;;;;9.65;2.92;;;;;;;;;;5032233;28;20045;-67
2022/01/10 01:55:03;;;;;;;13.10;2.75;;;;;;;;;;5032827;28;20049;-68
2022/01/10 01:57:30;;;;;;;8.32;2.58;;;;;;;;;;5030746;28;20107;-67
2022/01/10 01:59:57;;;;;;;13.25;3.63;;;;;;;;;;5029605;28;20105;-67
2022/01/10 02:02:23;;;;;;;12.15;3.67;;;;;;;;;;5032107;28;20103;-68
2022/01/10 02:04:50;;;;;;;14.07;4.38;;;;;;;;;;5032647;28;20085;-68
2022/01/10 02:07:17;;;;;;;9.13;3.90;;;;;;;;;;5031945;28;20505;-67
2022/01/10 02:09:43;;;;;;;14.37;4.30;;;;;;;;;;5032374;28;20095;-67
2022/01/10 02:12:10;;;;;;;19.27;4.72;;;;;;;;;;5031679;28;20049;-67
2022/01/10 02:14:38;;;;;;;9.93;4.45;;;;;;;;;;5032354;28;20064;-67
2022/01/10 02:17:06;;;;;;;16.02;4.47;;;;;;;;;;5031871;28;20088;-67
2022/01/10 02:19:32;;;;;;;10.65;4.35;;;;;;;;;;5031115;28;20053;-67
2022/01/10 02:21:58;;;;;;;18.15;4.40;;;;;;;;;;5032113;28;20099;-67
2022/01/10 02:24:25;;;;;;;12.02;3.75;;;;;;;;;;5032478;28;20115;-67
2022/01/10 02:26:51;;;;;;;9.88;4.28;;;;;;;;;;5032442;28;20049;-67
2022/01/10 02:29:18;;;;;;;9.75;3.70;;;;;;;;;;5032482;28;20409;-67
2022/01/10 02:31:45;;;;;;;15.70;4.10;;;;;;;;;;5031036;28;20049;-67
2022/01/10 02:34:16;;;;;;;7.10;3.25;;;;;;;;;;5032200;28;20049;-67
2022/01/10 02:36:42;;;;;;;11.07;2.78;;;;;;;;;;5032218;28;20046;-68
2022/01/10 02:39:10;;;;;;;8.15;2.78;;;;;;;;;;5032178;28;20072;-67
2022/01/10 02:41:42;;;;;;;8.32;2.63;;;;;;;;;;5031952;28;20823;-67
2022/01/10 02:44:13;;;;;;;11.98;3.10;;;;;;;;;;5032179;28;20058;-67
2022/01/10 02:46:41;;;;;;;9.27;3.10;;;;;;;;;;5032093;28;20091;-67
2022/01/10 02:49:27;;;;;;;10.73;2.60;;;;;;;;;;5031958;28;20057;-67
2022/01/10 02:51:55;;;;;;;8.20;2.60;;;;;;;;;;5032337;28;20041;-67
2022/01/10 02:54:22;;;;;;;8.95;2.60;;;;;;;;;;5032233;28;20099;-68
2022/01/10 02:56:53;;;;;;;10.52;2.92;;;;;;;;;;5031895;28;20543;-68
2022/01/10 02:59:20;;;;;;;10.13;2.67;;;;;;;;;;5032219;28;20382;-67
2022/01/10 03:01:47;;;;;;;8.43;3.40;;;;;;;;;;5032116;28;20053;-67
2022/01/10 03:04:16;;;;;;;10.35;3.38;;;;;;;;;;5031831;28;20053;-67
2022/01/10 03:06:44;;;;;;;10.45;2.95;;;;;;;;;;5031992;28;20103;-67
2022/01/10 03:09:11;;;;;;;11.82;4.00;;;;;;;;;;5032108;28;20134;-67
2022/01/10 03:11:38;;;;;;;11.95;2.45;;;;;;;;;;5031622;28;20081;-67
2022/01/10 03:14:05;;;;;;;10.95;3.30;;;;;;;;;;5031716;28;20057;-67
2022/01/10 03:16:32;;;;;;;9.38;3.25;;;;;;;;;;5031951;28;20045;-67
2022/01/10 03:18:58;;;;;;;8.75;2.88;;;;;;;;;;5031882;28;20493;-67
2022/01/10 03:21:25;;;;;;;8.77;2.85;;;;;;;;;;5031094;28;20260;-67
2022/01/10 03:23:52;;;;;;;9.65;2.67;;;;;;;;;;5031549;28;20049;-67
2022/01/10 03:26:19;;;;;;;11.32;3.38;;;;;;;;;;5031117;28;20053;-67
2022/01/10 03:28:45;;;;;;;12.63;2.85;;;;;;;;;;5031271;28;20057;-67
2022/01/10 03:31:12;;;;;;;7.47;2.40;;;;;;;;;;5031782;28;20429;-67
2022/01/10 03:33:39;;;;;;;8.80;2.92;;;;;;;;;;5031044;28;20049;-67
2022/01/10 03:36:05;;;;;;;10.02;2.50;;;;;;;;;;5033771;28;20046;-67
2022/01/10 03:38:31;;;;;;;10.98;2.22;;;;;;;;;;5035164;28;20053;-67
2022/01/10 03:40:58;;;;;;;9.98;2.90;;;;;;;;;;5035205;28;20464;-67
2022/01/10 03:43:24;;;;;;;10.88;3.10;;;;;;;;;;5035119;28;20390;-67
2022/01/10 03:45:51;;;;;;;10.70;3.13;;;;;;;;;;5035829;28;20128;-67
2022/01/10 03:48:17;;;;;;;13.43;3.80;;;;;;;;;;5034589;28;20557;-68
2022/01/10 03:50:44;;;;;;;13.05;4.10;;;;;;;;;;5033812;28;20080;-67
2022/01/10 03:53:10;;;;;;;8.43;3.25;;;;;;;;;;5034600;28;20493;-67
2022/01/10 03:55:38;;;;;;;9.85;3.20;;;;;;;;;;5035575;28;20080;-67
2022/01/10 03:58:04;;;;;;;8.35;3.22;;;;;;;;;;5032003;28;20077;-67
2022/01/10 04:00:31;;;;;;;7.72;3.03;;;;;;;;;;5034895;28;20111;-67
2022/01/10 04:03:03;;;;;;;7.68;3.08;;;;;;;;;;5034386;28;20052;-67
2022/01/10 04:05:30;;;;;;;9.88;3.10;;;;;;;;;;5034087;28;20740;-67
2022/01/10 04:07:56;;;;;;;14.98;4.70;;;;;;;;;;5034581;28;20107;-67
2022/01/10 04:10:23;;;;;;;12.18;3.17;;;;;;;;;;5035224;28;20041;-67
2022/01/10 04:12:49;;;;;;;12.52;3.88;;;;;;;;;;5034400;28;20103;-67
2022/01/10 04:15:16;;;;;;;12.65;3.33;;;;;;;;;;5033834;28;20053;-67
2022/01/10 04:17:43;;;;;;;9.90;3.65;;;;;;;;;;5034329;28;20046;-67
2022/01/10 04:20:09;;;;;;;13.82;3.25;;;;;;;;;;5034142;28;20049;-67
2022/01/10 04:22:36;;;;;;;12.30;3.65;;;;;;;;;;5034232;28;20797;-67
2022/01/10 04:25:04;;;;;;;11.52;3.70;;;;;;;;;;5034134;28;20057;-67
2022/01/10 04:27:32;;;;;;;11.90;3.85;;;;;;;;;;5034074;28;20417;-67
2022/01/10 04:29:59;;;;;;;14.68;4.50;;;;;;;;;;5034300;28;20053;-67
2022/01/10 04:32:28;;;;;;;10.13;3.95;;;;;;;;;;5033754;28;20049;-67
2022/01/10 04:34:54;;;;;;;8.95;4.25;;;;;;;;;;5033572;28;20103;-67
2022/01/10 04:37:21;;;;;;;8.77;4.15;;;;;;;;;;5034186;28;20049;-67
2022/01/10 04:39:47;;;;;;;9.18;3.95;;;;;;;;;;5033378;28;20041;-67
2022/01/10 04:42:13;;;;;;;10.35;4.25;;;;;;;;;;5033653;28;20115;-67
2022/01/10 04:44:41;;;;;;;8.30;3.58;;;;;;;;;;5034274;28;20091;-67
2022/01/10 04:47:08;;;;;;;9.80;3.95;;;;;;;;;;5032318;28;20168;-67
2022/01/10 04:49:58;;;;;;;8.07;4.05;;;;;;;;;;5033511;28;20123;-67
2022/01/10 04:52:21;;;;;;;9.82;4.05;;;;;;;;;;5033546;28;20076;-67
2022/01/10 04:54:47;;;;;;;11.70;4.60;;;;;;;;;;5032886;28;20489;-67
2022/01/10 04:57:13;;;;;;;10.80;4.32;;;;;;;;;;5033363;28;20481;-67
2022/01/10 04:59:40;;;;;;;10.25;3.85;;;;;;;;;;5033269;28;20045;-67
2022/01/10 05:02:07;;;;;;;8.17;3.70;;;;;;;;;;5033874;28;20403;-67
2022/01/10 05:04:34;;;;;;;10.97;3.80;;;;;;;;;;5033044;28;20061;-67
2022/01/10 05:07:00;;;;;;;10.52;3.80;;;;;;;;;;5033678;28;20065;-67
2022/01/10 05:09:27;;;;;;;8.75;3.78;;;;;;;;;;5033319;28;20061;-67
2022/01/10 05:11:53;;;;;;;6.55;4.30;;;;;;;;;;5033936;28;20049;-67
2022/01/10 05:14:20;;;;;;;13.45;5.20;;;;;;;;;;5030756;28;20045;-67
2022/01/10 05:16:46;;;;;;;11.50;4.30;;;;;;;;;;5033574;28;20501;-67
2022/01/10 05:19:13;;;;;;;14.93;5.03;;;;;;;;;;5032946;28;20493;-67
2022/01/10 05:21:40;;;;;;;11.13;4.10;;;;;;;;;;5032643;28;20128;-67
2022/01/10 05:24:07;;;;;;;12.23;3.95;;;;;;;;;;5032419;28;20101;-67
2022/01/10 05:26:34;;;;;;;7.90;3.83;;;;;;;;;;5033226;28;20111;-67
2022/01/10 05:29:02;;;;;;;10.27;4.00;;;;;;;;;;5032974;28;20049;-67
2022/01/10 05:31:33;;;;;;;11.88;3.80;;;;;;;;;;5032248;28;20570;-67
2022/01/10 05:34:00;;;;;;;13.95;4.70;;;;;;;;;;5033102;28;20457;-67
2022/01/10 05:36:26;;;;;;;9.63;3.60;;;;;;;;;;5033396;28;20501;-67
2022/01/10 05:38:53;;;;;;;8.43;5.05;;;;;;;;;;5032693;28;20456;-67
2022/01/10 05:41:22;;;;;;;8.38;3.85;;;;;;;;;;5033349;28;20053;-67
2022/01/10 05:43:49;;;;;;;10.27;3.75;;;;;;;;;;5032803;28;20050;-67
2022/01/10 05:46:18;;;;;;;11.18;4.47;;;;;;;;;;5033327;28;20132;-67
2022/01/10 05:48:48;;;;;;;4.80;3.58;;;;;;;;;;5032442;28;20056;-67
2022/01/10 05:51:14;;;;;;;17.30;5.22;;;;;;;;;;5032920;28;20053;-67
2022/01/10 05:53:41;;;;;;;12.55;3.72;;;;;;;;;;5032089;28;20547;-67
2022/01/10 05:56:08;;;;;;;9.48;4.15;;;;;;;;;;5032085;28;20045;-67
2022/01/10 05:58:34;;;;;;;9.00;3.65;;;;;;;;;;5032080;28;20119;-67
2022/01/10 06:01:00;;;;;;;12.90;5.28;;;;;;;;;;5033179;28;20041;-67
2022/01/10 06:03:27;;;;;;;10.35;5.63;;;;;;;;;;5031906;28;20053;-67
2022/01/10 06:05:53;;;;;;;9.65;5.72;;;;;;;;;;5031561;28;20042;-67
2022/01/10 06:08:20;;;;;;;15.27;6.38;;;;;;;;;;5032020;28;20053;-67
2022/01/10 06:10:46;;;;;;;10.63;7.15;;;;;;;;;;5033031;28;20050;-67
2022/01/10 06:13:13;;;;;;;15.35;9.18;;;;;;;;;;5032266;28;20045;-67
2022/01/10 06:15:41;;;;;;;16.25;8.60;;;;;;;;;;5032985;28;20093;-67
2022/01/10 06:18:07;;;;;;;10.35;6.65;;;;;;;;;;5026207;28;20101;-67
2022/01/10 06:20:34;;;;;;;10.77;5.60;;;;;;;;;;5032447;28;20056;-67
2022/01/10 06:23:00;;;;;;;11.30;5.07;;;;;;;;;;5032225;28;20053;-67
2022/01/10 06:25:27;;;;;;;12.80;5.13;;;;;;;;;;5031994;28;20121;-67
2022/01/10 06:27:54;;;;;;;12.60;5.47;;;;;;;;;;5032108;28;20049;-68
2022/01/10 06:30:20;;;;;;;10.15;5.38;;;;;;;;;;5032350;28;20497;-67
2022/01/10 06:32:47;;;;;;;11.48;5.75;;;;;;;;;;5026877;28;20046;-67
2022/01/10 06:35:13;;;;;;;13.10;5.90;;;;;;;;;;5026489;28;20046;-68
2022/01/10 06:37:39;;;;;;;10.68;5.55;;;;;;;;;;5031783;28;20041;-67
2022/01/10 06:40:06;;;;;;;13.18;5.65;;;;;;;;;;5031926;28;20049;-67
2022/01/10 06:42:33;;;;;;;12.52;6.25;;;;;;;;;;5031863;28;20096;-67
2022/01/10 06:44:59;;;;;;;11.60;5.95;;;;;;;;;;5031138;28;20049;-67
2022/01/10 06:47:26;;;;;;;14.18;6.03;;;;;;;;;;5031362;28;20786;-67
2022/01/10 06:49:52;;;;;;;13.30;6.70;;;;;;;;;;5031485;28;20533;-67
2022/01/10 06:52:19;;;;;;;13.90;6.50;;;;;;;;;;5031521;28;20077;-67
2022/01/10 06:54:45;;;;;;;10.93;6.80;;;;;;;;;;5030467;28;20049;-67
2022/01/10 06:57:12;;;;;;;15.98;6.90;;;;;;;;;;5031082;28;20049;-67
2022/01/10 06:59:38;;;;;;;14.07;6.32;;;;;;;;;;5026811;28;20045;-67
2022/01/10 07:02:05;;;;;;;12.45;6.60;;;;;;;;;;5031765;28;20076;-68
2022/01/10 07:04:32;;;;;;;11.18;6.82;;;;;;;;;;5030277;28;20053;-67
2022/01/10 07:06:59;;;;;;;16.17;6.60;;;;;;;;;;5031751;28;20058;-67
2022/01/10 07:09:25;;;;;;;12.70;7.45;;;;;;;;;;5030548;28;20490;-67
2022/01/10 07:11:52;;;;;;;13.95;7.15;;;;;;;;;;5031380;28;20486;-67
2022/01/10 07:14:18;;;;;;;14.65;8.45;;;;;;;;;;5030804;28;20508;-68
2022/01/10 07:16:45;;;;;;;19.40;8.35;;;;;;;;;;5031492;28;20041;-68
2022/01/10 07:19:11;;;;;;;15.38;7.63;;;;;;;;;;5030632;28;20128;-68
2022/01/10 07:21:39;;;;;;;13.23;7.25;;;;;;;;;;5031644;28;20053;-67
2022/01/10 07:24:06;;;;;;;13.07;7.57;;;;;;;;;;5031142;28;20489;-68
2022/01/10 07:26:33;;;;;;;13.52;7.43;;;;;;;;;;5030228;28;20095;-68
2022/01/10 07:28:59;;;;;;;16.83;7.78;;;;;;;;;;5026914;28;20102;-67
2022/01/10 07:31:26;;;;;;;13.40;8.27;;;;;;;;;;5030640;28;20448;-68
2022/01/10 07:33:54;;;;;;;13.35;8.55;;;;;;;;;;5026332;28;20045;-68
2022/01/10 07:36:21;;;;;;;14.88;8.27;;;;;;;;;;5029164;28;20045;-68
2022/01/10 07:38:47;;;;;;;18.80;9.07;;;;;;;;;;5019328;28;20081;-69
2022/01/10 07:41:14;;;;;;;16.30;9.68;;;;;;;;;;5028803;28;20049;-68
2022/01/10 07:43:40;;;;;;;16.35;8.45;;;;;;;;;;5030065;28;20049;-68
2022/01/10 07:46:07;;;;;;;15.52;8.27;;;;;;;;;;5031593;28;20059;-67
2022/01/10 07:48:35;;;;;;;14.05;7.55;;;;;;;;;;5030688;28;20060;-68
2022/01/10 07:51:03;;;;;;;15.60;8.10;;;;;;;;;;5031659;28;20088;-68
2022/01/10 07:53:29;;;;;;;13.13;7.18;;;;;;;;;;5030200;28;20092;-68
2022/01/10 07:55:57;;;;;;;11.70;7.65;;;;;;;;;;5030196;28;20048;-68
2022/01/10 07:58:24;;;;;;;13.77;8.00;;;;;;;;;;5030549;28;20119;-68
2022/01/10 08:00:50;;;;;;;12.95;6.82;;;;;;;;;;5029273;28;20119;-68
2022/01/10 08:03:17;;;;;;;11.23;7.10;;;;;;;;;;5025250;28;20145;-67
2022/01/10 08:05:43;;;;;;;11.60;7.00;;;;;;;;;;5015968;28;20107;-68
2022/01/10 08:08:10;;;;;;;10.95;7.28;;;;;;;;;;5022933;28;20058;-68
2022/01/10 08:10:37;;;;;;;14.10;8.23;;;;;;;;;;5010439;28;20112;-68
2022/01/10 08:13:05;;;;;;;12.40;7.63;;;;;;;;;;5025045;28;20108;-67
2022/01/10 08:15:32;;;;;;;13.27;7.80;;;;;;;;;;5029962;28;20115;-68
2022/01/10 08:17:58;;;;;;;11.38;6.95;;;;;;;;;;5030204;28;20096;-67
2022/01/10 08:20:25;;;;;;;11.85;6.82;;;;;;;;;;5012453;28;20074;-67
2022/01/10 08:22:51;;;;;;;15.82;9.77;;;;;;;;;;5020166;28;20045;-68
2022/01/10 08:25:18;;;;;;;14.95;9.98;;;;;;;;;;5034750;28;20574;-68
2022/01/10 08:27:44;;;;;;;14.98;9.32;;;;;;;;;;5032972;28;20053;-68
2022/01/10 08:30:11;;;;;;;14.88;8.80;;;;;;;;;;5032649;28;20515;-68
2022/01/10 08:32:37;;;;;;;12.48;8.30;;;;;;;;;;5031450;28;20046;-68
2022/01/10 08:35:05;;;;;;;13.07;7.85;;;;;;;;;;5034344;28;20096;-67
2022/01/10 08:37:31;;;;;;;14.85;7.80;;;;;;;;;;5033448;28;20041;-68
2022/01/10 08:39:58;;;;;;;10.90;6.47;;;;;;;;;;5033622;28;20041;-68
2022/01/10 08:42:26;;;;;;;9.05;5.57;;;;;;;;;;5033682;28;20054;-68
2022/01/10 08:44:53;;;;;;;10.10;5.30;;;;;;;;;;5031701;28;20088;-67
2022/01/10 08:47:20;;;;;;;13.82;5.57;;;;;;;;;;5032348;28;20489;-67
2022/01/10 08:49:47;;;;;;;13.40;5.88;;;;;;;;;;5033430;28;20064;-67
2022/01/10 08:52:14;;;;;;;11.90;5.55;;;;;;;;;;5034039;28;20456;-68
2022/01/10 08:54:40;;;;;;;14.73;5.22;;;;;;;;;;5024503;28;20058;-68
2022/01/10 08:57:07;;;;;;;12.38;5.32;;;;;;;;;;5029756;28;20053;-68
2022/01/10 08:59:33;;;;;;;12.68;5.20;;;;;;;;;;5032997;28;20505;-68
2022/01/10 09:02:00;;;;;;;11.75;5.13;;;;;;;;;;5031659;28;20049;-68
2022/01/10 09:04:27;;;;;;;14.57;5.07;;;;;;;;;;5030445;28;20498;-68
2022/01/10 09:07:00;;;;;;;9.70;5.30;;;;;;;;;;5033161;28;20042;-68
2022/01/10 09:09:27;;;;;;;11.48;4.07;;;;;;;;;;5032908;28;20095;-68
2022/01/10 09:11:53;;;;;;;11.43;4.65;;;;;;;;;;5033365;28;20066;-68
2022/01/10 09:14:21;;;;;;;9.77;4.10;;;;;;;;;;5024054;28;20149;-68
2022/01/10 09:16:47;;;;;;;11.48;4.53;;;;;;;;;;5033469;28;20115;-68
2022/01/10 09:19:14;;;;;;;7.50;3.90;;;;;;;;;;5033268;28;20045;-68
2022/01/10 09:21:40;;;;;;;7.90;3.60;;;;;;;;;;5033202;28;20482;-70
2022/01/10 09:24:07;;;;;;;8.70;3.53;;;;;;;;;;5033328;28;20053;-67
2022/01/10 09:26:33;;;;;;;5.95;3.10;;;;;;;;;;5033089;28;20061;-68
2022/01/10 09:29:00;;;;;;;8.35;3.53;;;;;;;;;;5032668;28;20104;-68
2022/01/10 09:31:26;;;;;;;9.05;3.15;;;;;;;;;;5030747;28;20046;-67
2022/01/10 09:33:55;;;;;;;11.02;2.80;;;;;;;;;;5031734;28;20481;-67
2022/01/10 09:36:22;;;;;;;6.18;3.28;;;;;;;;;;5032631;28;20045;-67
2022/01/10 09:38:49;;;;;;;8.27;3.20;;;;;;;;;;5031707;28;20056;-67
2022/01/10 09:41:16;;;;;;;8.48;2.75;;;;;;;;;;5029988;28;20123;-67
2022/01/10 09:43:48;;;;;;;9.13;3.45;;;;;;;;;;5030980;28;20095;-67
2022/01/10 09:46:15;;;;;;;5.30;2.88;;;;;;;;;;5029384;28;20408;-67
2022/01/10 09:48:41;;;;;;;8.05;2.97;;;;;;;;;;5032507;28;20057;-67
2022/01/10 09:51:24;;;;;;;6.47;3.38;;;;;;;;;;5012864;28;20508;-67
2022/01/10 09:53:51;;;;;;;9.02;2.90;;;;;;;;;;5012978;28;20473;-67
2022/01/10 09:56:17;;;;;;;8.80;3.00;;;;;;;;;;5031416;28;20085;-67
2022/01/10 09:58:45;;;;;;;3.10;2.35;;;;;;;;;;5032628;28;20045;-68
2022/01/10 10:01:13;;;;;;;6.70;2.90;;;;;;;;;;5032463;28;20049;-68
2022/01/10 10:03:42;;;;;;;9.02;2.90;;;;;;;;;;5032260;28;20065;-67
2022/01/10 10:06:09;;;;;;;4.90;3.08;;;;;;;;;;5032695;28;20049;-67
2022/01/10 10:08:37;;;;;;;5.82;2.70;;;;;;;;;;5032472;28;20402;-67
2022/01/10 10:11:05;;;;;;;4.25;2.55;;;;;;;;;;5032305;28;20493;-67
2022/01/10 10:13:40;;;;;;;6.10;2.38;;;;;;;;;;5032340;28;20091;-68
2022/01/10 10:16:12;;;;;;;5.35;2.33;;;;;;;;;;5032324;28;20091;-67
2022/01/10 10:18:39;;;;;;;5.53;3.00;;;;;;;;;;5032252;28;20471;-67
2022/01/10 10:21:16;;;;;;;4.77;3.00;;;;;;;;;;5032547;28;20046;-67
2022/01/10 10:23:46;;;;;;;7.03;2.50;;;;;;;;;;5031835;28;20413;-67
2022/01/10 10:26:21;;;;;;;6.15;3.03;;;;;;;;;;5032018;28;20107;-67
2022/01/10 10:28:48;;;;;;;3.80;2.40;;;;;;;;;;5031625;28;20053;-67
2022/01/10 10:31:29;;;;;;;5.22;3.13;;;;;;;;;;5029839;28;20103;-67
2022/01/10 10:33:56;;;;;;;4.53;2.67;;;;;;;;;;5032046;28;20073;-68
2022/01/10 10:36:25;;;;;;;2.92;2.33;;;;;;;;;;5032221;28;20096;-68
2022/01/10 10:38:52;;;;;;;4.75;2.83;;;;;;;;;;5031648;28;20046;-68
2022/01/10 10:41:19;;;;;;;4.53;2.60;;;;;;;;;;5031404;28;20049;-68
2022/01/10 10:43:45;;;;;;;4.40;2.47;;;;;;;;;;5031816;28;20103;-68
2022/01/10 10:46:15;;;;;;;7.32;3.50;;;;;;;;;;5031783;28;20095;-68
2022/01/10 10:48:44;;;;;;;7.00;2.83;;;;;;;;;;5031741;28;20095;-68
2022/01/10 10:51:10;;;;;;;6.07;2.97;;;;;;;;;;5021544;28;20099;-68
2022/01/10 10:53:37;;;;;;;7.78;3.00;;;;;;;;;;5031957;28;20107;-68
2022/01/10 10:56:05;;;;;;;6.88;2.67;;;;;;;;;;5032138;28;20085;-68
2022/01/10 10:58:35;;;;;;;7.07;3.08;;;;;;;;;;5031729;28;20505;-68
2022/01/10 11:01:03;;;;;;;9.50;3.22;;;;;;;;;;5031971;28;20045;-68
2022/01/10 11:03:29;;;;;;;4.85;2.92;;;;;;;;;;5031553;28;20069;-68
2022/01/10 11:06:03;;;;;;;4.75;2.20;;;;;;;;;;5031714;28;20051;-68
2022/01/10 11:08:31;;;;;;;6.90;2.55;;;;;;;;;;5031723;28;20107;-68
2022/01/10 11:10:58;;;;;;;6.65;2.53;;;;;;;;;;5031886;28;20053;-68
2022/01/10 11:13:25;;;;;;;5.70;2.65;;;;;;;;;;5031232;28;20481;-68
2022/01/10 11:15:52;;;;;;;6.22;2.83;;;;;;;;;;5030971;28;20053;-68
2022/01/10 11:18:21;;;;;;;6.03;3.13;;;;;;;;;;5031447;28;20540;-68
2022/01/10 11:20:52;;;;;;;9.02;3.50;;;;;;;;;;5031067;28;20054;-68
2022/01/10 11:23:44;;;;;;;8.40;3.08;;;;;;;;;;5031512;28;20081;-68
2022/01/10 11:26:11;;;;;;;7.47;2.85;;;;;;;;;;5031062;28;20551;-68
2022/01/10 11:28:52;;;;;;;5.45;2.42;;;;;;;;;;5029337;28;20057;-68
2022/01/10 11:31:19;;;;;;;7.53;2.55;;;;;;;;;;5026802;28;20049;-68
2022/01/10 11:33:46;;;;;;;;;;;;;;;;;;5030569;28;20047;-68
2022/01/10 11:36:13;;;;;;;6.90;2.10;;;;;;;;;;5029080;28;19921;-68
2022/01/10 11:38:45;;;;;;;6.22;2.30;;;;;;;;;;5029792;28;20417;-68
2022/01/10 11:41:15;;;;;;;5.28;2.47;;;;;;;;;;5028542;28;20141;-68
2022/01/10 11:43:51;;;;;;;5.55;2.13;;;;;;;;;;5026136;28;20046;-73
2022/01/10 11:46:37;;;;;;;5.47;2.22;;;;;;;;;;5030077;28;20107;-73
2022/01/10 11:49:09;;;;;;;4.10;1.75;;;;;;;;;;5029929;28;20442;-72
2022/01/10 11:51:36;;;;;;;6.10;1.98;;;;;;;;;;5030167;28;20144;-71
2022/01/10 11:54:08;;;;;;;4.95;1.85;;;;;;;;;;5030419;28;20042;-72
2022/01/10 11:56:36;;;;;;;5.45;2.13;;;;;;;;;;5030899;28;20045;-72
2022/01/10 11:59:38;;;;;;;4.72;1.95;;;;;;;;;;5034108;28;20516;-71
2022/01/10 12:02:14;;;;;;;6.85;2.15;;;;;;;;;;5031947;28;20452;-72
2022/01/10 12:04:42;;;;;;;6.50;1.90;;;;;;;;;;5033675;28;20089;-71
2022/01/10 12:07:11;;;;;;;5.45;2.28;;;;;;;;;;5034098;28;20045;-72
2022/01/10 12:09:38;;;;;;;7.03;2.35;;;;;;;;;;5034471;28;20326;-72
2022/01/10 12:12:10;;;;;;;8.40;2.42;;;;;;;;;;5034147;28;20049;-73
2022/01/10 12:14:38;;;;;;;6.30;2.63;;;;;;;;;;5034208;28;20046;-73
2022/01/10 12:17:05;;;;;;;7.00;2.40;;;;;;;;;;5033855;28;20087;-72
2022/01/10 12:19:32;;;;;;;8.23;3.20;;;;;;;;;;5034471;28;20045;-72
2022/01/10 12:21:58;;;;;;;5.22;2.30;;;;;;;;;;5034197;28;20045;-72
2022/01/10 12:24:28;;;;;;;5.50;2.05;;;;;;;;;;5034516;28;20059;-73
2022/01/10 12:26:56;;;;;;;5.85;2.25;;;;;;;;;;5034614;28;20112;-71
2022/01/10 12:29:28;;;;;;;6.18;2.25;;;;;;;;;;5034144;28;20417;-72
2022/01/10 12:31:54;;;;;;;6.78;2.10;;;;;;;;;;5034425;28;20068;-72
2022/01/10 12:34:21;;;;;;;5.95;1.85;;;;;;;;;;5034361;28;20045;-72
2022/01/10 12:36:47;;;;;;;4.15;1.90;;;;;;;;;;5034032;28;20053;-72
2022/01/10 12:39:22;;;;;;;7.13;1.73;;;;;;;;;;5032509;28;20095;-72
2022/01/10 12:41:50;;;;;;;5.82;1.40;;;;;;;;;;5031702;28;20497;-70
2022/01/10 12:44:17;;;;;;;6.03;1.92;;;;;;;;;;5034126;28;20058;-72
2022/01/10 12:46:44;;;;;;;4.73;1.73;;;;;;;;;;5033919;28;20440;-72
2022/01/10 12:49:12;;;;;;;6.47;2.03;;;;;;;;;;5033969;28;20290;-73
2022/01/10 12:51:43;;;;;;;4.33;1.57;;;;;;;;;;5033995;28;20076;-72
2022/01/10 12:54:11;;;;;;;7.15;1.63;;;;;;;;;;5033954;28;20348;-72
2022/01/10 12:56:37;;;;;;;2.70;1.10;;;;;;;;;;5033690;28;20057;-71
2022/01/10 12:59:04;;;;;;;4.13;1.65;;;;;;;;;;5033904;28;20446;-72
2022/01/10 13:01:30;;;;;;;5.35;1.92;;;;;;;;;;5032814;28;20045;-72
2022/01/10 13:03:59;;;;;;;5.47;1.92;;;;;;;;;;5032988;28;20060;-71
2022/01/10 13:06:27;;;;;;;6.70;1.48;;;;;;;;;;5033236;28;20456;-72
2022/01/10 13:08:54;;;;;;;4.40;1.70;;;;;;;;;;5032091;28;20053;-72
2022/01/10 13:11:23;;;;;;;4.78;1.40;;;;;;;;;;5033088;28;20512;-72
2022/01/10 13:13:49;;;;;;;4.05;1.40;;;;;;;;;;5032174;28;20382;-72
2022/01/10 13:16:29;;;;;;;5.78;1.58;;;;;;;;;;5033520;28;20112;-72
2022/01/10 13:19:00;;;;;;;2.17;1.27;;;;;;;;;;5033199;28;20413;-72
2022/01/10 13:21:33;;;;;;;3.60;1.20;;;;;;;;;;5031704;28;20045;-71
2022/01/10 13:24:06;;;;;;;4.20;1.33;;;;;;;;;;5033414;28;20387;-71
2022/01/10 13:26:33;;;;;;;1.98;1.10;;;;;;;;;;5033188;28;20481;-71
2022/01/10 13:29:04;;;;;;;3.60;1.45;;;;;;;;;;5033356;28;20054;-71
2022/01/10 13:31:34;;;;;;;2.92;1.08;;;;;;;;;;5032353;28;20041;-71
2022/01/10 13:34:00;;;;;;;2.83;1.20;;;;;;;;;;5032548;28;20045;-71
2022/01/10 13:36:27;;;;;;;1.85;1.08;;;;;;;;;;5033128;28;20046;-71
2022/01/10 13:38:53;;;;;;;3.35;1.10;;;;;;;;;;5033152;28;20045;-71
2022/01/10 13:41:20;;;;;;;5.88;1.27;;;;;;;;;;5032957;28;20100;-71
2022/01/10 13:43:49;;;;;;;2.88;1.02;;;;;;;;;;5031062;28;20099;-71
2022/01/10 13:46:16;;;;;;;3.83;1.45;;;;;;;;;;5032829;28;20051;-72
2022/01/10 13:48:48;;;;;;;5.03;1.70;;;;;;;;;;5032882;28;20107;-72
2022/01/10 13:51:15;;;;;;;2.50;1.30;;;;;;;;;;5032355;28;20119;-71
2022/01/10 13:53:41;;;;;;;2.35;1.50;;;;;;;;;;5032502;28;20041;-71
2022/01/10 13:56:18;;;;;;;2.28;1.50;;;;;;;;;;5032674;28;20122;-71
2022/01/10 13:58:48;;;;;;;3.08;1.55;;;;;;;;;;5031183;28;20563;-72
2022/01/10 14:01:16;;;;;;;3.53;1.48;;;;;;;;;;5032222;28;20455;-72
2022/01/10 14:03:44;;;;;;;2.90;1.80;;;;;;;;;;5031833;28;20132;-72
2022/01/10 14:06:10;;;;;;;1.45;1.33;;;;;;;;;;5032672;28;20068;-72
2022/01/10 14:08:38;;;;;;;3.60;1.75;;;;;;;;;;5032266;28;20347;-72
2022/01/10 14:11:05;;;;;;;2.17;1.30;;;;;;;;;;5031518;28;20160;-72
2022/01/10 14:13:32;;;;;;;1.38;1.27;;;;;;;;;;5030489;28;20088;-72
2022/01/10 14:15:59;;;;;;;2.67;1.30;;;;;;;;;;5031270;28;20057;-72
2022/01/10 14:18:26;;;;;;;2.00;1.50;;;;;;;;;;5032021;28;20095;-71
2022/01/10 14:20:53;;;;;;;1.42;1.33;;;;;;;;;;5032093;28;20053;-72
2022/01/10 14:23:19;;;;;;;2.28;1.33;;;;;;;;;;5031991;28;20489;-72
2022/01/10 14:25:46;;;;;;;2.20;1.70;;;;;;;;;;5032541;28;20050;-72
2022/01/10 14:28:13;;;;;;;2.85;1.50;;;;;;;;;;5031000;28;20055;-72
2022/01/10 14:30:39;;;;;;;1.88;1.30;;;;;;;;;;5030931;28;20050;-72
2022/01/10 14:33:06;;;;;;;1.75;1.40;;;;;;;;;;5031086;28;20041;-72
2022/01/10 14:35:33;;;;;;;2.15;1.42;;;;;;;;;;5031303;28;20049;-72
2022/01/10 14:37:59;;;;;;;2.10;1.00;;;;;;;;;;5031480;28;20050;-72
2022/01/10 14:40:26;;;;;;;1.73;0.90;;;;;;;;;;5028944;28;20388;-72
2022/01/10 14:42:52;;;;;;;1.83;0.75;;;;;;;;;;5028756;28;20041;-72
2022/01/10 14:45:19;;;;;;;1.60;0.80;;;;;;;;;;5031377;28;20061;-72
2022/01/10 14:47:45;;;;;;;1.60;0.90;;;;;;;;;;5031536;28;20095;-72